sensor_id;sensor_type;location;lat;lon;timestamp;temperature;humidity
4701;DHT22;8724;51.272;6.554;2023-02-01T00:01:25;8.70;99.90
4701;DHT22;8724;51.272;6.554;2023-02-01T00:03:53;8.60;99.90
4701;DHT22;8724;51.272;6.554;2023-02-01T00:06:21;8.60;99.90
4701;DHT22;8724;51.272;6.554;2023-02-01T00:08:52;8.70;99.90
4701;DHT22;8724;51.272;6.554;2023-02-01T00:11:21;8.80;99.90
4701;DHT22;8724;51.272;6.554;2023-02-01T00:13:50;8.70;99.90
4701;DHT22;8724;51.272;6.554;2023-02-01T00:16:20;8.70;99.90
4701;DHT22;8724;51.272;6.554;2023-02-01T00:19:29;8.70;99.90
4701;DHT22;8724;51.272;6.554;2023-02-01T00:22:08;8.70;99.90
4701;DHT22;8724;51.272;6.554;2023-02-01T00:24:36;8.70;99.90
4701;DHT22;8724;51.272;6.554;2023-02-01T00:27:04;8.70;99.90
4701;DHT22;8724;51.272;6.554;2023-02-01T00:29:33;9.00;99.90
4701;DHT22;8724;51.272;6.554;2023-02-01T00:32:01;8.70;99.90
4701;DHT22;8724;51.272;6.554;2023-02-01T00:34:31;8.70;99.90
4701;DHT22;8724;51.272;6.554;2023-02-01T00:36:59;8.70;99.90
4701;DHT22;8724;51.272;6.554;2023-02-01T00:39:28;8.70;99.90
4701;DHT22;8724;51.272;6.554;2023-02-01T00:41:56;8.70;99.90
4701;DHT22;8724;51.272;6.554;2023-02-01T00:44:24;8.70;99.90
4701;DHT22;8724;51.272;6.554;2023-02-01T00:46:53;8.70;99.90
4701;DHT22;8724;51.272;6.554;2023-02-01T00:49:22;8.70;99.90
4701;DHT22;8724;51.272;6.554;2023-02-01T00:51:51;8.70;99.90
4701;DHT22;8724;51.272;6.554;2023-02-01T00:54:20;8.60;99.90
4701;DHT22;8724;51.272;6.554;2023-02-01T00:56:48;8.90;99.90
4701;DHT22;8724;51.272;6.554;2023-02-01T00:59:18;8.60;99.90
4701;DHT22;8724;51.272;6.554;2023-02-01T01:01:46;8.60;99.90
4701;DHT22;8724;51.272;6.554;2023-02-01T01:04:14;8.60;99.90
4701;DHT22;8724;51.272;6.554;2023-02-01T01:06:43;8.60;99.90
4701;DHT22;8724;51.272;6.554;2023-02-01T01:09:13;8.60;99.90
4701;DHT22;8724;51.272;6.554;2023-02-01T01:11:41;8.60;99.90
4701;DHT22;8724;51.272;6.554;2023-02-01T01:14:09;8.60;99.90
4701;DHT22;8724;51.272;6.554;2023-02-01T01:16:38;8.60;99.90
4701;DHT22;8724;51.272;6.554;2023-02-01T01:19:06;8.60;99.90
4701;DHT22;8724;51.272;6.554;2023-02-01T01:21:34;8.60;99.90
4701;DHT22;8724;51.272;6.554;2023-02-01T01:24:03;8.70;99.90
4701;DHT22;8724;51.272;6.554;2023-02-01T01:26:33;8.60;99.90
4701;DHT22;8724;51.272;6.554;2023-02-01T01:29:01;8.60;99.90
4701;DHT22;8724;51.272;6.554;2023-02-01T01:31:30;8.60;99.90
4701;DHT22;8724;51.272;6.554;2023-02-01T01:33:59;8.60;99.90
4701;DHT22;8724;51.272;6.554;2023-02-01T01:36:28;8.50;99.90
4701;DHT22;8724;51.272;6.554;2023-02-01T01:38:58;8.60;99.90
4701;DHT22;8724;51.272;6.554;2023-02-01T01:41:29;8.60;99.90
4701;DHT22;8724;51.272;6.554;2023-02-01T01:47:14;8.50;99.90
4701;DHT22;8724;51.272;6.554;2023-02-01T01:49:43;8.50;99.90
4701;DHT22;8724;51.272;6.554;2023-02-01T01:52:12;8.50;99.90
4701;DHT22;8724;51.272;6.554;2023-02-01T01:54:44;8.50;99.90
4701;DHT22;8724;51.272;6.554;2023-02-01T01:57:16;8.50;99.90
4701;DHT22;8724;51.272;6.554;2023-02-01T01:59:52;8.50;99.90
4701;DHT22;8724;51.272;6.554;2023-02-01T02:02:21;8.50;99.90
4701;DHT22;8724;51.272;6.554;2023-02-01T02:04:50;8.40;99.90
4701;DHT22;8724;51.272;6.554;2023-02-01T02:07:22;8.40;99.90
4701;DHT22;8724;51.272;6.554;2023-02-01T02:09:51;8.40;99.90
4701;DHT22;8724;51.272;6.554;2023-02-01T02:12:27;8.40;99.90
4701;DHT22;8724;51.272;6.554;2023-02-01T02:14:57;8.40;99.90
4701;DHT22;8724;51.272;6.554;2023-02-01T02:17:31;8.40;99.90
4701;DHT22;8724;51.272;6.554;2023-02-01T02:20:39;8.40;99.90
4701;DHT22;8724;51.272;6.554;2023-02-01T02:26:50;8.40;99.90
4701;DHT22;8724;51.272;6.554;2023-02-01T02:35:53;8.30;99.90
4701;DHT22;8724;51.272;6.554;2023-02-01T02:38:30;8.40;99.90
4701;DHT22;8724;51.272;6.554;2023-02-01T02:41:09;8.30;99.90
4701;DHT22;8724;51.272;6.554;2023-02-01T02:43:47;8.30;99.90
4701;DHT22;8724;51.272;6.554;2023-02-01T02:46:37;8.30;99.90
4701;DHT22;8724;51.272;6.554;2023-02-01T02:49:31;8.20;99.90
4701;DHT22;8724;51.272;6.554;2023-02-01T02:52:07;8.30;99.90
4701;DHT22;8724;51.272;6.554;2023-02-01T02:54:56;8.30;99.90
4701;DHT22;8724;51.272;6.554;2023-02-01T02:57:28;8.20;99.90
4701;DHT22;8724;51.272;6.554;2023-02-01T03:00:17;8.30;99.90
4701;DHT22;8724;51.272;6.554;2023-02-01T03:03:04;8.20;99.90
4701;DHT22;8724;51.272;6.554;2023-02-01T03:05:51;8.30;99.90
4701;DHT22;8724;51.272;6.554;2023-02-01T03:08:23;8.20;99.90
4701;DHT22;8724;51.272;6.554;2023-02-01T03:10:57;8.20;99.90
4701;DHT22;8724;51.272;6.554;2023-02-01T03:13:33;8.20;99.90
4701;DHT22;8724;51.272;6.554;2023-02-01T03:16:09;8.20;99.90
4701;DHT22;8724;51.272;6.554;2023-02-01T03:18:46;8.20;99.90
4701;DHT22;8724;51.272;6.554;2023-02-01T03:21:22;8.20;99.90
4701;DHT22;8724;51.272;6.554;2023-02-01T03:23:53;8.10;99.90
4701;DHT22;8724;51.272;6.554;2023-02-01T03:26:26;8.20;99.90
4701;DHT22;8724;51.272;6.554;2023-02-01T03:29:01;8.10;99.90
4701;DHT22;8724;51.272;6.554;2023-02-01T03:31:31;8.10;99.90
4701;DHT22;8724;51.272;6.554;2023-02-01T03:34:00;8.10;99.90
4701;DHT22;8724;51.272;6.554;2023-02-01T03:36:33;8.10;99.90
4701;DHT22;8724;51.272;6.554;2023-02-01T03:39:08;8.10;99.90
4701;DHT22;8724;51.272;6.554;2023-02-01T03:41:40;8.10;99.90
4701;DHT22;8724;51.272;6.554;2023-02-01T03:44:13;8.20;99.90
4701;DHT22;8724;51.272;6.554;2023-02-01T03:46:47;8.20;99.90
4701;DHT22;8724;51.272;6.554;2023-02-01T03:49:21;8.10;99.90
4701;DHT22;8724;51.272;6.554;2023-02-01T03:51:51;8.10;99.90
4701;DHT22;8724;51.272;6.554;2023-02-01T03:54:24;8.10;99.90
4701;DHT22;8724;51.272;6.554;2023-02-01T03:56:55;8.20;99.90
4701;DHT22;8724;51.272;6.554;2023-02-01T03:59:25;8.20;99.90
4701;DHT22;8724;51.272;6.554;2023-02-01T04:01:53;8.20;99.90
4701;DHT22;8724;51.272;6.554;2023-02-01T04:04:21;8.20;99.90
4701;DHT22;8724;51.272;6.554;2023-02-01T04:06:52;8.20;99.90
4701;DHT22;8724;51.272;6.554;2023-02-01T04:09:22;8.20;99.90
4701;DHT22;8724;51.272;6.554;2023-02-01T04:11:50;8.10;99.90
4701;DHT22;8724;51.272;6.554;2023-02-01T04:14:19;8.20;99.90
4701;DHT22;8724;51.272;6.554;2023-02-01T04:16:47;8.20;99.90
4701;DHT22;8724;51.272;6.554;2023-02-01T04:19:15;8.20;99.90
4701;DHT22;8724;51.272;6.554;2023-02-01T04:21:43;8.20;99.90
4701;DHT22;8724;51.272;6.554;2023-02-01T04:24:12;8.20;99.90
4701;DHT22;8724;51.272;6.554;2023-02-01T04:26:41;8.10;99.90
4701;DHT22;8724;51.272;6.554;2023-02-01T04:29:10;8.10;99.90
4701;DHT22;8724;51.272;6.554;2023-02-01T04:31:38;8.10;99.90
4701;DHT22;8724;51.272;6.554;2023-02-01T04:34:07;8.10;99.90
4701;DHT22;8724;51.272;6.554;2023-02-01T04:36:35;8.10;99.90
4701;DHT22;8724;51.272;6.554;2023-02-01T04:39:04;8.10;99.90
4701;DHT22;8724;51.272;6.554;2023-02-01T04:41:34;8.10;99.90
4701;DHT22;8724;51.272;6.554;2023-02-01T04:44:08;8.10;99.90
4701;DHT22;8724;51.272;6.554;2023-02-01T04:46:43;8.10;99.90
4701;DHT22;8724;51.272;6.554;2023-02-01T04:49:14;8.30;99.90
4701;DHT22;8724;51.272;6.554;2023-02-01T04:51:45;8.00;99.90
4701;DHT22;8724;51.272;6.554;2023-02-01T04:54:17;8.00;99.90
4701;DHT22;8724;51.272;6.554;2023-02-01T04:56:55;8.00;99.90
4701;DHT22;8724;51.272;6.554;2023-02-01T04:59:26;8.00;99.90
4701;DHT22;8724;51.272;6.554;2023-02-01T05:01:59;8.30;99.90
4701;DHT22;8724;51.272;6.554;2023-02-01T05:04:28;8.00;99.90
4701;DHT22;8724;51.272;6.554;2023-02-01T05:07:02;8.00;99.90
4701;DHT22;8724;51.272;6.554;2023-02-01T05:09:30;8.00;99.90
4701;DHT22;8724;51.272;6.554;2023-02-01T05:11:59;8.00;99.90
4701;DHT22;8724;51.272;6.554;2023-02-01T05:14:47;8.00;99.90
4701;DHT22;8724;51.272;6.554;2023-02-01T05:17:17;8.00;99.90
4701;DHT22;8724;51.272;6.554;2023-02-01T05:19:47;8.20;99.90
4701;DHT22;8724;51.272;6.554;2023-02-01T05:22:15;8.00;99.90
4701;DHT22;8724;51.272;6.554;2023-02-01T05:24:46;7.90;99.90
4701;DHT22;8724;51.272;6.554;2023-02-01T05:27:14;7.90;99.90
4701;DHT22;8724;51.272;6.554;2023-02-01T05:29:43;7.90;99.90
4701;DHT22;8724;51.272;6.554;2023-02-01T05:32:14;7.90;99.90
4701;DHT22;8724;51.272;6.554;2023-02-01T05:34:52;7.90;99.90
4701;DHT22;8724;51.272;6.554;2023-02-01T05:37:20;7.90;99.90
4701;DHT22;8724;51.272;6.554;2023-02-01T05:39:52;7.80;99.90
4701;DHT22;8724;51.272;6.554;2023-02-01T05:42:25;7.80;99.90
4701;DHT22;8724;51.272;6.554;2023-02-01T05:44:57;7.80;99.90
4701;DHT22;8724;51.272;6.554;2023-02-01T05:47:29;7.80;99.90
4701;DHT22;8724;51.272;6.554;2023-02-01T05:50:07;7.80;99.90
4701;DHT22;8724;51.272;6.554;2023-02-01T05:52:35;7.90;99.90
4701;DHT22;8724;51.272;6.554;2023-02-01T05:55:14;7.80;99.90
4701;DHT22;8724;51.272;6.554;2023-02-01T05:57:48;7.90;99.90
4701;DHT22;8724;51.272;6.554;2023-02-01T06:00:24;7.90;99.90
4701;DHT22;8724;51.272;6.554;2023-02-01T06:02:55;7.90;99.90
4701;DHT22;8724;51.272;6.554;2023-02-01T06:05:24;7.90;99.90
4701;DHT22;8724;51.272;6.554;2023-02-01T06:07:56;7.90;99.90
4701;DHT22;8724;51.272;6.554;2023-02-01T06:10:25;7.90;99.90
4701;DHT22;8724;51.272;6.554;2023-02-01T06:12:55;7.80;99.90
4701;DHT22;8724;51.272;6.554;2023-02-01T06:15:26;7.80;99.90
4701;DHT22;8724;51.272;6.554;2023-02-01T06:18:05;8.10;99.90
4701;DHT22;8724;51.272;6.554;2023-02-01T06:20:38;7.80;99.90
4701;DHT22;8724;51.272;6.554;2023-02-01T06:23:13;7.80;99.90
4701;DHT22;8724;51.272;6.554;2023-02-01T06:25:47;7.80;99.90
4701;DHT22;8724;51.272;6.554;2023-02-01T06:28:21;7.80;99.90
4701;DHT22;8724;51.272;6.554;2023-02-01T06:30:51;7.80;99.90
4701;DHT22;8724;51.272;6.554;2023-02-01T06:33:32;7.80;99.90
4701;DHT22;8724;51.272;6.554;2023-02-01T06:36:04;7.80;99.90
4701;DHT22;8724;51.272;6.554;2023-02-01T06:38:37;7.80;99.90
4701;DHT22;8724;51.272;6.554;2023-02-01T06:41:09;7.80;99.90
4701;DHT22;8724;51.272;6.554;2023-02-01T06:43:38;7.80;99.90
4701;DHT22;8724;51.272;6.554;2023-02-01T06:46:13;7.80;99.90
4701;DHT22;8724;51.272;6.554;2023-02-01T06:48:43;7.80;99.90
4701;DHT22;8724;51.272;6.554;2023-02-01T06:51:21;7.90;99.90
4701;DHT22;8724;51.272;6.554;2023-02-01T06:53:49;7.90;99.90
4701;DHT22;8724;51.272;6.554;2023-02-01T06:56:18;7.90;99.90
4701;DHT22;8724;51.272;6.554;2023-02-01T06:58:48;7.90;99.90
4701;DHT22;8724;51.272;6.554;2023-02-01T07:01:17;7.90;99.90
4701;DHT22;8724;51.272;6.554;2023-02-01T07:03:49;7.90;99.90
4701;DHT22;8724;51.272;6.554;2023-02-01T07:06:18;7.90;99.90
4701;DHT22;8724;51.272;6.554;2023-02-01T07:08:47;8.20;99.90
4701;DHT22;8724;51.272;6.554;2023-02-01T07:11:17;7.90;99.90
4701;DHT22;8724;51.272;6.554;2023-02-01T07:13:46;7.90;99.90
4701;DHT22;8724;51.272;6.554;2023-02-01T07:16:16;7.90;99.90
4701;DHT22;8724;51.272;6.554;2023-02-01T07:18:45;7.90;99.90
4701;DHT22;8724;51.272;6.554;2023-02-01T07:21:15;7.90;99.90
4701;DHT22;8724;51.272;6.554;2023-02-01T07:23:43;7.90;99.90
4701;DHT22;8724;51.272;6.554;2023-02-01T07:26:13;7.90;99.90
4701;DHT22;8724;51.272;6.554;2023-02-01T07:28:43;7.90;99.90
4701;DHT22;8724;51.272;6.554;2023-02-01T07:31:13;7.90;99.90
4701;DHT22;8724;51.272;6.554;2023-02-01T07:33:43;7.90;99.90
4701;DHT22;8724;51.272;6.554;2023-02-01T07:36:16;7.90;99.90
4701;DHT22;8724;51.272;6.554;2023-02-01T07:38:45;7.90;99.90
4701;DHT22;8724;51.272;6.554;2023-02-01T07:41:17;8.00;99.90
4701;DHT22;8724;51.272;6.554;2023-02-01T07:43:45;8.00;99.90
4701;DHT22;8724;51.272;6.554;2023-02-01T07:46:14;8.30;99.90
4701;DHT22;8724;51.272;6.554;2023-02-01T07:48:43;8.00;99.90
4701;DHT22;8724;51.272;6.554;2023-02-01T07:51:13;8.00;99.90
4701;DHT22;8724;51.272;6.554;2023-02-01T07:53:44;8.00;99.90
4701;DHT22;8724;51.272;6.554;2023-02-01T07:56:14;8.00;99.90
4701;DHT22;8724;51.272;6.554;2023-02-01T07:58:43;8.00;99.90
4701;DHT22;8724;51.272;6.554;2023-02-01T08:01:15;8.00;99.90
4701;DHT22;8724;51.272;6.554;2023-02-01T08:03:52;8.10;99.90
4701;DHT22;8724;51.272;6.554;2023-02-01T08:06:22;8.00;99.90
4701;DHT22;8724;51.272;6.554;2023-02-01T08:08:53;8.10;99.90
4701;DHT22;8724;51.272;6.554;2023-02-01T08:11:23;8.10;99.90
4701;DHT22;8724;51.272;6.554;2023-02-01T08:13:52;8.00;99.90
4701;DHT22;8724;51.272;6.554;2023-02-01T08:16:21;8.00;99.90
4701;DHT22;8724;51.272;6.554;2023-02-01T08:18:50;8.00;99.90
4701;DHT22;8724;51.272;6.554;2023-02-01T08:21:20;8.00;99.90
4701;DHT22;8724;51.272;6.554;2023-02-01T08:23:49;7.90;99.90
4701;DHT22;8724;51.272;6.554;2023-02-01T08:26:21;7.90;99.90
4701;DHT22;8724;51.272;6.554;2023-02-01T08:28:52;7.90;99.90
4701;DHT22;8724;51.272;6.554;2023-02-01T08:31:22;7.90;99.90
4701;DHT22;8724;51.272;6.554;2023-02-01T08:33:52;7.90;99.90
4701;DHT22;8724;51.272;6.554;2023-02-01T08:36:22;7.90;99.90
4701;DHT22;8724;51.272;6.554;2023-02-01T08:38:50;7.90;99.90
4701;DHT22;8724;51.272;6.554;2023-02-01T08:41:23;7.80;99.90
4701;DHT22;8724;51.272;6.554;2023-02-01T08:43:51;7.90;99.90
4701;DHT22;8724;51.272;6.554;2023-02-01T08:46:21;7.90;99.90
4701;DHT22;8724;51.272;6.554;2023-02-01T08:48:51;7.90;99.90
4701;DHT22;8724;51.272;6.554;2023-02-01T08:51:21;7.90;99.90
4701;DHT22;8724;51.272;6.554;2023-02-01T08:53:50;7.90;99.90
4701;DHT22;8724;51.272;6.554;2023-02-01T08:56:20;7.90;99.90
4701;DHT22;8724;51.272;6.554;2023-02-01T08:58:49;7.90;99.90
4701;DHT22;8724;51.272;6.554;2023-02-01T09:01:17;7.90;99.90
4701;DHT22;8724;51.272;6.554;2023-02-01T09:03:45;7.90;99.90
4701;DHT22;8724;51.272;6.554;2023-02-01T09:06:15;7.90;99.90
4701;DHT22;8724;51.272;6.554;2023-02-01T09:08:43;7.90;99.90
4701;DHT22;8724;51.272;6.554;2023-02-01T09:11:14;7.90;99.90
4701;DHT22;8724;51.272;6.554;2023-02-01T09:13:44;7.90;99.90
4701;DHT22;8724;51.272;6.554;2023-02-01T09:16:13;8.00;99.90
4701;DHT22;8724;51.272;6.554;2023-02-01T09:18:41;8.00;99.90
4701;DHT22;8724;51.272;6.554;2023-02-01T09:21:28;7.90;99.90
4701;DHT22;8724;51.272;6.554;2023-02-01T09:23:58;8.00;99.90
4701;DHT22;8724;51.272;6.554;2023-02-01T09:26:27;8.00;99.90
4701;DHT22;8724;51.272;6.554;2023-02-01T09:29:00;8.00;99.90
4701;DHT22;8724;51.272;6.554;2023-02-01T09:31:29;8.00;99.90
4701;DHT22;8724;51.272;6.554;2023-02-01T09:33:58;8.00;99.90
4701;DHT22;8724;51.272;6.554;2023-02-01T09:36:26;8.10;99.90
4701;DHT22;8724;51.272;6.554;2023-02-01T09:38:57;8.10;99.90
4701;DHT22;8724;51.272;6.554;2023-02-01T09:41:33;8.00;99.90
4701;DHT22;8724;51.272;6.554;2023-02-01T09:44:33;8.10;99.90
4701;DHT22;8724;51.272;6.554;2023-02-01T09:47:12;8.10;99.90
4701;DHT22;8724;51.272;6.554;2023-02-01T09:49:48;8.10;99.90
4701;DHT22;8724;51.272;6.554;2023-02-01T09:52:22;8.20;99.90
4701;DHT22;8724;51.272;6.554;2023-02-01T09:54:57;8.10;99.90
4701;DHT22;8724;51.272;6.554;2023-02-01T09:57:36;8.10;99.90
4701;DHT22;8724;51.272;6.554;2023-02-01T10:00:16;8.10;99.90
4701;DHT22;8724;51.272;6.554;2023-02-01T10:02:45;8.10;99.90
4701;DHT22;8724;51.272;6.554;2023-02-01T10:05:16;8.10;99.90
4701;DHT22;8724;51.272;6.554;2023-02-01T10:07:51;8.10;99.90
4701;DHT22;8724;51.272;6.554;2023-02-01T10:10:29;8.10;99.90
4701;DHT22;8724;51.272;6.554;2023-02-01T10:13:30;8.10;99.90
4701;DHT22;8724;51.272;6.554;2023-02-01T10:16:19;8.10;99.90
4701;DHT22;8724;51.272;6.554;2023-02-01T10:19:01;8.10;99.90
4701;DHT22;8724;51.272;6.554;2023-02-01T10:21:42;8.20;99.90
4701;DHT22;8724;51.272;6.554;2023-02-01T10:24:25;8.20;99.90
4701;DHT22;8724;51.272;6.554;2023-02-01T10:27:01;8.20;99.90
4701;DHT22;8724;51.272;6.554;2023-02-01T10:29:34;8.20;99.90
4701;DHT22;8724;51.272;6.554;2023-02-01T10:32:15;8.20;99.90
4701;DHT22;8724;51.272;6.554;2023-02-01T10:34:48;8.20;99.90
4701;DHT22;8724;51.272;6.554;2023-02-01T10:37:27;8.30;99.90
4701;DHT22;8724;51.272;6.554;2023-02-01T10:39:59;8.30;99.90
4701;DHT22;8724;51.272;6.554;2023-02-01T10:42:29;8.30;99.90
4701;DHT22;8724;51.272;6.554;2023-02-01T10:44:59;8.20;99.90
4701;DHT22;8724;51.272;6.554;2023-02-01T10:47:31;8.30;99.90
4701;DHT22;8724;51.272;6.554;2023-02-01T10:50:08;8.30;99.90
4701;DHT22;8724;51.272;6.554;2023-02-01T10:52:46;8.30;99.90
4701;DHT22;8724;51.272;6.554;2023-02-01T10:55:27;8.30;99.90
4701;DHT22;8724;51.272;6.554;2023-02-01T10:57:57;8.30;99.90
4701;DHT22;8724;51.272;6.554;2023-02-01T11:00:26;8.30;99.90
4701;DHT22;8724;51.272;6.554;2023-02-01T11:02:57;8.30;99.90
4701;DHT22;8724;51.272;6.554;2023-02-01T11:05:26;8.30;99.90
4701;DHT22;8724;51.272;6.554;2023-02-01T11:07:55;8.30;99.90
4701;DHT22;8724;51.272;6.554;2023-02-01T11:10:38;8.30;99.90
4701;DHT22;8724;51.272;6.554;2023-02-01T11:13:13;8.30;99.90
4701;DHT22;8724;51.272;6.554;2023-02-01T11:15:44;8.30;99.90
4701;DHT22;8724;51.272;6.554;2023-02-01T11:18:19;8.30;99.90
4701;DHT22;8724;51.272;6.554;2023-02-01T11:20:49;8.30;99.90
4701;DHT22;8724;51.272;6.554;2023-02-01T11:23:21;8.40;99.90
4701;DHT22;8724;51.272;6.554;2023-02-01T11:25:53;8.30;99.90
4701;DHT22;8724;51.272;6.554;2023-02-01T11:28:25;8.40;99.90
4701;DHT22;8724;51.272;6.554;2023-02-01T11:30:55;8.40;99.90
4701;DHT22;8724;51.272;6.554;2023-02-01T11:33:29;8.40;99.90
4701;DHT22;8724;51.272;6.554;2023-02-01T11:35:58;8.40;99.90
4701;DHT22;8724;51.272;6.554;2023-02-01T11:38:29;8.50;99.90
4701;DHT22;8724;51.272;6.554;2023-02-01T11:41:12;8.40;99.90
4701;DHT22;8724;51.272;6.554;2023-02-01T11:43:59;8.50;99.90
4701;DHT22;8724;51.272;6.554;2023-02-01T11:46:30;8.50;99.90
4701;DHT22;8724;51.272;6.554;2023-02-01T11:49:19;8.50;99.90
4701;DHT22;8724;51.272;6.554;2023-02-01T11:52:00;8.50;99.90
4701;DHT22;8724;51.272;6.554;2023-02-01T11:54:42;8.50;99.90
4701;DHT22;8724;51.272;6.554;2023-02-01T11:57:34;8.50;99.90
4701;DHT22;8724;51.272;6.554;2023-02-01T12:00:35;8.40;99.90
4701;DHT22;8724;51.272;6.554;2023-02-01T12:03:37;8.50;99.90
4701;DHT22;8724;51.272;6.554;2023-02-01T12:06:14;8.50;99.90
4701;DHT22;8724;51.272;6.554;2023-02-01T12:09:00;8.50;99.90
4701;DHT22;8724;51.272;6.554;2023-02-01T12:11:46;8.70;99.90
4701;DHT22;8724;51.272;6.554;2023-02-01T12:14:30;8.60;99.90
4701;DHT22;8724;51.272;6.554;2023-02-01T12:20:10;8.80;99.90
4701;DHT22;8724;51.272;6.554;2023-02-01T12:22:53;8.60;99.90
4701;DHT22;8724;51.272;6.554;2023-02-01T12:25:38;8.60;99.90
4701;DHT22;8724;51.272;6.554;2023-02-01T12:28:31;8.60;99.90
4701;DHT22;8724;51.272;6.554;2023-02-01T12:31:14;8.70;99.90
4701;DHT22;8724;51.272;6.554;2023-02-01T12:33:55;8.60;99.90
4701;DHT22;8724;51.272;6.554;2023-02-01T12:36:32;8.60;99.90
4701;DHT22;8724;51.272;6.554;2023-02-01T12:39:13;8.60;99.90
4701;DHT22;8724;51.272;6.554;2023-02-01T12:41:50;8.70;99.90
4701;DHT22;8724;51.272;6.554;2023-02-01T12:44:33;8.70;99.90
4701;DHT22;8724;51.272;6.554;2023-02-01T12:47:07;8.70;99.90
4701;DHT22;8724;51.272;6.554;2023-02-01T12:49:48;8.70;99.90
4701;DHT22;8724;51.272;6.554;2023-02-01T12:52:23;8.80;99.90
4701;DHT22;8724;51.272;6.554;2023-02-01T12:54:59;8.70;99.90
4701;DHT22;8724;51.272;6.554;2023-02-01T12:57:32;8.70;99.90
4701;DHT22;8724;51.272;6.554;2023-02-01T13:00:07;8.70;99.90
4701;DHT22;8724;51.272;6.554;2023-02-01T13:02:44;8.70;99.90
4701;DHT22;8724;51.272;6.554;2023-02-01T13:05:17;8.80;99.90
4701;DHT22;8724;51.272;6.554;2023-02-01T13:07:50;8.80;99.90
4701;DHT22;8724;51.272;6.554;2023-02-01T13:10:28;8.70;99.90
4701;DHT22;8724;51.272;6.554;2023-02-01T13:13:08;8.70;99.90
4701;DHT22;8724;51.272;6.554;2023-02-01T13:15:40;8.70;99.90
4701;DHT22;8724;51.272;6.554;2023-02-01T13:18:16;8.80;99.90
4701;DHT22;8724;51.272;6.554;2023-02-01T13:20:50;8.70;99.90
4701;DHT22;8724;51.272;6.554;2023-02-01T13:23:25;8.70;99.90
4701;DHT22;8724;51.272;6.554;2023-02-01T13:25:56;8.80;99.90
4701;DHT22;8724;51.272;6.554;2023-02-01T13:28:26;8.90;99.90
4701;DHT22;8724;51.272;6.554;2023-02-01T13:31:10;8.80;99.90
4701;DHT22;8724;51.272;6.554;2023-02-01T13:33:56;8.80;99.90
4701;DHT22;8724;51.272;6.554;2023-02-01T13:36:48;8.80;99.90
4701;DHT22;8724;51.272;6.554;2023-02-01T13:39:41;8.80;99.90
4701;DHT22;8724;51.272;6.554;2023-02-01T13:42:18;8.80;99.90
4701;DHT22;8724;51.272;6.554;2023-02-01T13:44:51;8.80;99.90
4701;DHT22;8724;51.272;6.554;2023-02-01T13:47:26;8.70;99.90
4701;DHT22;8724;51.272;6.554;2023-02-01T13:49:56;8.70;99.90
4701;DHT22;8724;51.272;6.554;2023-02-01T13:52:36;8.70;99.90
4701;DHT22;8724;51.272;6.554;2023-02-01T13:55:24;8.70;99.90
4701;DHT22;8724;51.272;6.554;2023-02-01T13:58:17;8.70;99.90
4701;DHT22;8724;51.272;6.554;2023-02-01T14:00:48;8.70;99.90
4701;DHT22;8724;51.272;6.554;2023-02-01T14:03:20;8.70;99.90
4701;DHT22;8724;51.272;6.554;2023-02-01T14:06:05;8.70;99.90
4701;DHT22;8724;51.272;6.554;2023-02-01T14:08:46;8.70;99.90
4701;DHT22;8724;51.272;6.554;2023-02-01T14:11:41;8.80;99.90
4701;DHT22;8724;51.272;6.554;2023-02-01T14:14:44;8.80;99.90
4701;DHT22;8724;51.272;6.554;2023-02-01T14:17:34;8.80;99.90
4701;DHT22;8724;51.272;6.554;2023-02-01T14:23:15;8.80;99.90
4701;DHT22;8724;51.272;6.554;2023-02-01T14:25:44;8.80;99.90
4701;DHT22;8724;51.272;6.554;2023-02-01T14:28:24;8.80;99.90
4701;DHT22;8724;51.272;6.554;2023-02-01T14:30:56;8.80;99.90
4701;DHT22;8724;51.272;6.554;2023-02-01T14:33:27;8.80;99.90
4701;DHT22;8724;51.272;6.554;2023-02-01T14:36:02;8.80;99.90
4701;DHT22;8724;51.272;6.554;2023-02-01T14:38:31;8.80;99.90
4701;DHT22;8724;51.272;6.554;2023-02-01T14:41:25;8.80;99.90
4701;DHT22;8724;51.272;6.554;2023-02-01T14:44:22;8.80;99.90
4701;DHT22;8724;51.272;6.554;2023-02-01T14:49:56;8.80;99.90
4701;DHT22;8724;51.272;6.554;2023-02-01T14:52:31;8.80;99.90
4701;DHT22;8724;51.272;6.554;2023-02-01T14:55:04;8.80;99.90
4701;DHT22;8724;51.272;6.554;2023-02-01T14:57:36;8.80;99.90
4701;DHT22;8724;51.272;6.554;2023-02-01T15:00:17;8.70;99.90
4701;DHT22;8724;51.272;6.554;2023-02-01T15:02:48;8.70;99.90
4701;DHT22;8724;51.272;6.554;2023-02-01T15:05:30;8.80;99.90
4701;DHT22;8724;51.272;6.554;2023-02-01T15:08:13;8.80;99.90
4701;DHT22;8724;51.272;6.554;2023-02-01T15:10:45;8.80;99.90
4701;DHT22;8724;51.272;6.554;2023-02-01T15:13:23;8.80;99.90
4701;DHT22;8724;51.272;6.554;2023-02-01T15:16:03;8.80;99.90
4701;DHT22;8724;51.272;6.554;2023-02-01T15:18:33;8.80;99.90
4701;DHT22;8724;51.272;6.554;2023-02-01T15:21:03;8.80;99.90
4701;DHT22;8724;51.272;6.554;2023-02-01T15:24:10;8.80;99.90
4701;DHT22;8724;51.272;6.554;2023-02-01T15:26:39;8.80;99.90
4701;DHT22;8724;51.272;6.554;2023-02-01T15:29:15;8.80;99.90
4701;DHT22;8724;51.272;6.554;2023-02-01T15:31:45;8.80;99.90
4701;DHT22;8724;51.272;6.554;2023-02-01T15:34:15;8.80;99.90
4701;DHT22;8724;51.272;6.554;2023-02-01T15:36:44;8.80;99.90
4701;DHT22;8724;51.272;6.554;2023-02-01T15:39:29;8.80;99.90
4701;DHT22;8724;51.272;6.554;2023-02-01T15:42:01;8.80;99.90
4701;DHT22;8724;51.272;6.554;2023-02-01T15:44:39;8.80;99.90
4701;DHT22;8724;51.272;6.554;2023-02-01T15:47:14;8.80;99.90
4701;DHT22;8724;51.272;6.554;2023-02-01T15:49:52;8.80;99.90
4701;DHT22;8724;51.272;6.554;2023-02-01T15:52:27;8.80;99.90
4701;DHT22;8724;51.272;6.554;2023-02-01T15:55:00;8.80;99.90
4701;DHT22;8724;51.272;6.554;2023-02-01T15:57:33;8.80;99.90
4701;DHT22;8724;51.272;6.554;2023-02-01T16:00:04;8.80;99.90
4701;DHT22;8724;51.272;6.554;2023-02-01T16:02:52;8.80;99.90
4701;DHT22;8724;51.272;6.554;2023-02-01T16:05:30;8.80;99.90
4701;DHT22;8724;51.272;6.554;2023-02-01T16:08:03;8.90;99.90
4701;DHT22;8724;51.272;6.554;2023-02-01T16:10:38;8.90;99.90
4701;DHT22;8724;51.272;6.554;2023-02-01T16:13:07;8.90;99.90
4701;DHT22;8724;51.272;6.554;2023-02-01T16:15:36;8.90;99.90
4701;DHT22;8724;51.272;6.554;2023-02-01T16:18:05;8.90;99.90
4701;DHT22;8724;51.272;6.554;2023-02-01T16:20:37;8.90;99.90
4701;DHT22;8724;51.272;6.554;2023-02-01T16:23:07;8.40;99.90
4701;DHT22;8724;51.272;6.554;2023-02-01T16:25:37;8.90;99.90
4701;DHT22;8724;51.272;6.554;2023-02-01T16:28:05;8.80;99.90
4701;DHT22;8724;51.272;6.554;2023-02-01T16:30:35;8.90;99.90
4701;DHT22;8724;51.272;6.554;2023-02-01T16:33:05;8.80;99.90
4701;DHT22;8724;51.272;6.554;2023-02-01T16:35:37;8.80;99.90
4701;DHT22;8724;51.272;6.554;2023-02-01T16:38:09;8.80;99.90
4701;DHT22;8724;51.272;6.554;2023-02-01T16:40:40;8.80;99.90
4701;DHT22;8724;51.272;6.554;2023-02-01T16:43:12;8.80;99.90
4701;DHT22;8724;51.272;6.554;2023-02-01T16:45:41;8.80;99.90
4701;DHT22;8724;51.272;6.554;2023-02-01T16:48:18;8.80;99.90
4701;DHT22;8724;51.272;6.554;2023-02-01T16:50:51;8.80;99.90
4701;DHT22;8724;51.272;6.554;2023-02-01T16:53:21;8.80;99.90
4701;DHT22;8724;51.272;6.554;2023-02-01T16:55:50;8.80;99.90
4701;DHT22;8724;51.272;6.554;2023-02-01T16:58:19;8.80;99.90
4701;DHT22;8724;51.272;6.554;2023-02-01T17:00:51;8.80;99.90
4701;DHT22;8724;51.272;6.554;2023-02-01T17:03:21;8.70;99.90
4701;DHT22;8724;51.272;6.554;2023-02-01T17:05:54;8.80;99.90
4701;DHT22;8724;51.272;6.554;2023-02-01T17:08:27;8.80;99.90
4701;DHT22;8724;51.272;6.554;2023-02-01T17:10:58;8.80;99.90
4701;DHT22;8724;51.272;6.554;2023-02-01T17:13:27;8.80;99.90
4701;DHT22;8724;51.272;6.554;2023-02-01T17:15:58;8.80;99.90
4701;DHT22;8724;51.272;6.554;2023-02-01T17:18:29;8.80;99.90
4701;DHT22;8724;51.272;6.554;2023-02-01T17:21:00;8.80;99.90
4701;DHT22;8724;51.272;6.554;2023-02-01T17:23:29;8.90;99.90